createdAt,value
2022-11-20T00:00:09.747Z,33.4010
2022-11-20T00:00:20.809Z,33.3900
2022-11-20T00:00:31.875Z,33.3730
2022-11-20T00:00:42.937Z,33.4080
2022-11-20T00:00:54.008Z,33.3840
2022-11-20T00:01:05.060Z,33.4190
2022-11-20T00:01:16.105Z,33.4300
2022-11-20T00:01:27.171Z,33.4470
2022-11-20T00:01:38.326Z,33.4800
2022-11-20T00:01:49.499Z,33.5420
2022-11-20T00:02:00.595Z,33.5760
2022-11-20T00:02:11.732Z,33.6100
2022-11-20T00:02:22.855Z,33.6100
2022-11-20T00:02:33.919Z,33.6050
2022-11-20T00:02:44.997Z,33.6600
2022-11-20T00:02:56.078Z,33.6890
2022-11-20T00:03:07.127Z,33.6380
2022-11-20T00:03:18.180Z,33.5090
2022-11-20T00:03:29.255Z,33.4190
2022-11-20T00:03:40.318Z,33.4010
2022-11-20T00:03:51.390Z,33.4260
2022-11-20T00:04:02.449Z,33.4320
2022-11-20T00:04:13.516Z,33.4160
2022-11-20T00:04:24.564Z,33.4360
2022-11-20T00:04:35.619Z,33.4420
2022-11-20T00:04:46.681Z,33.4890
2022-11-20T00:04:57.731Z,33.5900
2022-11-20T00:05:08.815Z,33.6690
2022-11-20T00:05:19.867Z,33.7090
2022-11-20T00:05:30.930Z,33.7310
2022-11-20T00:05:41.999Z,33.6910
2022-11-20T00:05:53.060Z,33.6580
2022-11-20T00:06:04.117Z,33.6250
2022-11-20T00:06:15.179Z,33.5840
2022-11-20T00:06:26.229Z,33.5620
2022-11-20T00:06:37.298Z,33.5110
2022-11-20T00:06:48.350Z,33.4890
2022-11-20T00:06:59.470Z,33.4720
2022-11-20T00:07:10.555Z,33.4550
2022-11-20T00:07:21.695Z,33.4500
2022-11-20T00:07:32.782Z,33.4370
2022-11-20T00:07:43.859Z,33.3820
2022-11-20T00:07:54.950Z,33.3540
2022-11-20T00:08:06.000Z,33.3140
2022-11-20T00:08:17.073Z,33.3170
2022-11-20T00:08:28.129Z,33.2260
2022-11-20T00:08:39.208Z,33.1590
2022-11-20T00:08:50.284Z,33.1590
2022-11-20T00:09:01.493Z,33.1480
2022-11-20T00:09:12.562Z,33.0530
2022-11-20T00:09:23.910Z,32.9010
2022-11-20T00:09:35.324Z,32.8120
2022-11-20T00:09:46.391Z,32.7480
2022-11-20T00:09:57.459Z,32.7660
2022-11-20T00:10:08.518Z,32.7220
2022-11-20T00:10:19.569Z,32.7910
2022-11-20T00:10:30.639Z,32.8810
2022-11-20T00:10:41.708Z,32.9030
2022-11-20T00:10:52.767Z,32.8080
2022-11-20T00:11:03.821Z,32.6840
2022-11-20T00:11:16.430Z,32.6160
2022-11-20T00:11:27.939Z,32.6060
2022-11-20T00:11:39.769Z,32.5440
2022-11-20T00:11:50.840Z,32.5170
2022-11-20T00:12:01.909Z,32.4700
2022-11-20T00:12:12.949Z,32.4480
2022-11-20T00:12:24.039Z,32.5100
2022-11-20T00:12:35.129Z,32.4430
2022-11-20T00:12:46.191Z,32.3950
2022-11-20T00:12:57.250Z,32.3950
2022-11-20T00:13:08.310Z,32.3600
2022-11-20T00:13:19.367Z,32.3490
2022-11-20T00:13:30.439Z,32.2900
2022-11-20T00:13:41.623Z,32.2900
2022-11-20T00:13:52.689Z,32.3120
2022-11-20T00:14:03.759Z,32.2960
2022-11-20T00:14:14.829Z,32.2790
2022-11-20T00:14:25.879Z,32.2370
2022-11-20T00:14:36.939Z,32.2260
2022-11-20T00:14:48.016Z,32.2200
2022-11-20T00:14:59.088Z,32.2020
2022-11-20T00:15:10.149Z,32.2050
2022-11-20T00:15:21.227Z,32.1710
2022-11-20T00:15:32.273Z,32.1600
2022-11-20T00:15:43.348Z,32.1320
2022-11-20T00:15:54.409Z,32.1100
2022-11-20T00:16:05.461Z,32.1160
2022-11-20T00:16:16.540Z,32.1540
2022-11-20T00:16:27.601Z,32.1100
2022-11-20T00:16:38.694Z,32.0580
2022-11-20T00:16:49.731Z,32.0960
2022-11-20T00:17:00.789Z,32.1180
2022-11-20T00:17:11.850Z,32.1360
2022-11-20T00:17:22.947Z,32.0840
2022-11-20T00:17:34.000Z,32.0720
2022-11-20T00:17:45.069Z,32.0840
2022-11-20T00:17:56.110Z,32.0780
2022-11-20T00:18:07.186Z,32.0780
2022-11-20T00:18:18.249Z,32.0500
2022-11-20T00:18:29.329Z,32.0520
2022-11-20T00:18:40.405Z,32.0910
2022-11-20T00:18:51.450Z,32.2260
2022-11-20T00:19:02.526Z,32.3430
2022-11-20T00:19:13.580Z,32.2370
2022-11-20T00:19:24.657Z,32.1000
2022-11-20T00:19:35.729Z,32.0500
2022-11-20T00:19:46.799Z,32.0390
2022-11-20T00:19:57.875Z,32.0110
2022-11-20T00:20:08.949Z,31.9710
2022-11-20T00:20:20.011Z,31.9270
2022-11-20T00:20:31.068Z,31.9220
2022-11-20T00:20:42.148Z,31.9380
2022-11-20T00:20:53.220Z,32.0280
2022-11-20T00:21:04.297Z,32.0440
2022-11-20T00:21:15.367Z,32.0390
2022-11-20T00:21:26.401Z,32.0110
2022-11-20T00:21:37.459Z,32.0000
2022-11-20T00:21:48.629Z,31.9380
2022-11-20T00:21:59.696Z,31.9380
2022-11-20T00:22:10.780Z,31.9880
2022-11-20T00:22:21.860Z,31.9950
2022-11-20T00:22:32.897Z,31.9600
2022-11-20T00:22:43.992Z,31.9060
2022-11-20T00:22:55.058Z,31.8490
2022-11-20T00:23:06.130Z,31.8440
2022-11-20T00:23:17.191Z,31.8440
2022-11-20T00:23:28.240Z,31.8710
2022-11-20T00:23:39.321Z,31.8990
2022-11-20T00:23:50.376Z,31.9180
2022-11-20T00:24:01.463Z,31.9180
2022-11-20T00:24:12.519Z,31.9180
2022-11-20T00:24:23.606Z,31.9070
2022-11-20T00:24:38.837Z,31.8450
2022-11-20T00:24:51.628Z,31.9270
2022-11-20T00:25:02.705Z,31.8640
2022-11-20T00:25:13.759Z,31.8020
2022-11-20T00:25:24.821Z,31.7630
2022-11-20T00:25:35.878Z,31.7600
2022-11-20T00:25:46.940Z,31.8100
2022-11-20T00:25:57.999Z,31.8710
2022-11-20T00:26:09.068Z,31.9160
2022-11-20T00:26:20.128Z,31.9220
2022-11-20T00:26:31.282Z,31.8710
2022-11-20T00:26:42.359Z,31.9060
2022-11-20T00:26:53.447Z,31.8600
2022-11-20T00:27:04.509Z,31.8380
2022-11-20T00:27:15.578Z,31.8330
2022-11-20T00:27:26.639Z,31.7600
2022-11-20T00:27:37.717Z,31.7990
2022-11-20T00:27:48.808Z,31.8380
2022-11-20T00:27:59.875Z,31.8550
2022-11-20T00:28:10.928Z,31.8150
2022-11-20T00:28:21.999Z,31.8040
2022-11-20T00:28:33.060Z,31.7440
2022-11-20T00:28:44.115Z,31.7090
2022-11-20T00:28:55.166Z,31.6870
2022-11-20T00:29:06.240Z,31.6600
2022-11-20T00:29:17.318Z,31.6550
2022-11-20T00:29:28.360Z,31.6200
2022-11-20T00:29:39.420Z,31.6440
2022-11-20T00:29:50.508Z,31.6680
2022-11-20T00:30:01.573Z,31.6770
2022-11-20T00:30:15.069Z,31.6460
2022-11-20T00:30:26.537Z,31.6970
2022-11-20T00:30:37.610Z,31.6410
2022-11-20T00:30:48.689Z,31.6080
2022-11-20T00:30:59.779Z,31.6080
2022-11-20T00:31:10.838Z,31.5570
2022-11-20T00:31:21.898Z,31.5250
2022-11-20T00:31:32.970Z,31.5250
2022-11-20T00:31:44.041Z,31.5010
2022-11-20T00:31:55.099Z,31.5070
2022-11-20T00:32:06.159Z,31.5360
2022-11-20T00:32:17.225Z,31.5250
2022-11-20T00:32:28.316Z,31.4960
2022-11-20T00:32:39.349Z,31.4960
2022-11-20T00:32:50.447Z,31.4960
2022-11-20T00:33:01.518Z,31.4960
2022-11-20T00:33:12.567Z,31.4850
2022-11-20T00:33:23.645Z,31.4680
2022-11-20T00:33:34.688Z,31.4300
2022-11-20T00:33:45.749Z,31.4250
2022-11-20T00:33:56.810Z,31.4210
2022-11-20T00:34:07.869Z,31.3930
2022-11-20T00:34:18.929Z,31.4530
2022-11-20T00:34:30.006Z,31.4770
2022-11-20T00:34:41.081Z,31.5530
2022-11-20T00:34:52.116Z,31.6260
2022-11-20T00:35:03.184Z,31.6310
2022-11-20T00:35:14.264Z,31.4990
2022-11-20T00:35:25.329Z,31.4930
2022-11-20T00:35:36.389Z,31.4150
2022-11-20T00:35:47.440Z,31.4770
2022-11-20T00:35:58.507Z,31.5100
2022-11-20T00:36:09.569Z,31.3990
2022-11-20T00:36:20.635Z,31.4210
2022-11-20T00:36:31.689Z,31.4930
2022-11-20T00:36:42.765Z,31.5880
2022-11-20T00:36:53.839Z,31.6260
2022-11-20T00:37:04.888Z,31.6260
2022-11-20T00:37:15.957Z,31.6040
2022-11-20T00:37:27.007Z,31.4930
2022-11-20T00:37:38.084Z,31.4040
2022-11-20T00:37:49.149Z,31.3360
2022-11-20T00:38:00.245Z,31.2960
2022-11-20T00:38:11.392Z,31.2690
2022-11-20T00:38:23.290Z,31.2740
2022-11-20T00:38:34.350Z,31.2910
2022-11-20T00:38:45.424Z,31.2520
2022-11-20T00:38:56.449Z,31.2460
2022-11-20T00:39:07.508Z,31.2240
2022-11-20T00:39:18.964Z,31.3630
2022-11-20T00:39:30.218Z,31.4070
2022-11-20T00:39:41.289Z,31.4250
2022-11-20T00:39:52.359Z,31.4580
2022-11-20T00:40:03.418Z,31.4470
2022-11-20T00:40:14.460Z,31.4120
2022-11-20T00:40:25.531Z,31.4680
2022-11-20T00:40:36.569Z,31.3740
2022-11-20T00:40:52.216Z,31.2690
2022-11-20T00:41:04.575Z,31.3410
2022-11-20T00:41:15.639Z,31.2600
2022-11-20T00:41:26.707Z,31.1800
2022-11-20T00:41:38.250Z,31.1410
2022-11-20T00:41:49.310Z,31.1300
2022-11-20T00:42:00.379Z,31.1190
2022-11-20T00:42:11.536Z,31.1190
2022-11-20T00:42:22.598Z,31.1650
2022-11-20T00:42:33.659Z,31.2700
2022-11-20T00:42:44.718Z,31.2090
2022-11-20T00:42:55.779Z,31.1330
2022-11-20T00:43:06.939Z,31.0980
2022-11-20T00:43:18.006Z,31.0930
2022-11-20T00:43:29.082Z,31.0980
2022-11-20T00:43:40.145Z,31.1090
2022-11-20T00:43:51.228Z,31.1090
2022-11-20T00:44:02.261Z,31.0980
2022-11-20T00:44:13.329Z,31.0660
2022-11-20T00:44:24.399Z,31.0440
2022-11-20T00:44:35.456Z,31.0440
2022-11-20T00:44:46.508Z,31.0840
2022-11-20T00:44:57.587Z,31.1780
2022-11-20T00:45:08.640Z,31.1670
2022-11-20T00:45:19.689Z,31.0560
2022-11-20T00:45:30.749Z,30.9950
2022-11-20T00:45:41.816Z,30.9680
2022-11-20T00:45:52.879Z,30.9460
2022-11-20T00:46:03.947Z,30.9120
2022-11-20T00:46:15.021Z,30.9010
2022-11-20T00:46:26.081Z,30.9060
2022-11-20T00:46:37.160Z,30.9120
2022-11-20T00:46:48.244Z,30.9100
2022-11-20T00:46:59.299Z,30.9210
2022-11-20T00:47:10.346Z,30.9350
2022-11-20T00:47:21.413Z,30.9790
2022-11-20T00:47:32.501Z,30.9680
2022-11-20T00:47:43.537Z,30.9620
2022-11-20T00:47:54.596Z,30.9620
2022-11-20T00:48:05.652Z,31.0890
2022-11-20T00:48:16.748Z,31.1270
2022-11-20T00:48:27.815Z,31.1040
2022-11-20T00:48:38.870Z,31.0320
2022-11-20T00:48:49.942Z,31.0770
2022-11-20T00:49:01.017Z,31.2160
2022-11-20T00:49:12.087Z,31.2920
2022-11-20T00:49:23.564Z,31.2380
2022-11-20T00:49:34.809Z,31.2810
2022-11-20T00:49:45.887Z,31.2920
2022-11-20T00:49:56.939Z,31.1270
2022-11-20T00:50:08.007Z,30.9660
2022-11-20T00:50:19.068Z,30.9410
2022-11-20T00:50:30.129Z,30.9200
2022-11-20T00:50:41.200Z,30.8600
2022-11-20T00:50:52.245Z,30.8380
2022-11-20T00:51:03.289Z,30.8270
2022-11-20T00:51:14.349Z,30.8110
2022-11-20T00:51:25.421Z,30.8160
2022-11-20T00:51:36.469Z,30.8110
2022-11-20T00:51:47.707Z,30.8050
2022-11-20T00:51:58.772Z,30.7840
2022-11-20T00:52:09.839Z,30.7840
2022-11-20T00:52:20.910Z,30.8050
2022-11-20T00:52:31.979Z,30.8000
2022-11-20T00:52:43.039Z,30.7950
2022-11-20T00:52:54.116Z,30.7950
2022-11-20T00:53:05.182Z,30.7950
2022-11-20T00:53:16.242Z,30.8110
2022-11-20T00:53:27.309Z,30.7710
2022-11-20T00:53:38.376Z,30.7770
2022-11-20T00:53:49.441Z,30.8160
2022-11-20T00:54:00.498Z,30.8330
2022-11-20T00:54:11.569Z,30.8110
2022-11-20T00:54:22.639Z,30.8050
2022-11-20T00:54:33.709Z,30.7500
2022-11-20T00:54:44.781Z,30.7550
2022-11-20T00:54:55.856Z,30.7630
2022-11-20T00:55:06.927Z,30.7910
2022-11-20T00:55:18.000Z,30.7960
2022-11-20T00:55:29.039Z,30.8020
2022-11-20T00:55:40.079Z,30.8460
2022-11-20T00:55:51.157Z,30.8680
2022-11-20T00:56:02.226Z,30.8230
2022-11-20T00:56:13.289Z,30.7690
2022-11-20T00:56:24.329Z,30.7290
2022-11-20T00:56:35.409Z,30.7020
2022-11-20T00:56:46.488Z,30.6640
2022-11-20T00:56:57.529Z,30.6460
2022-11-20T00:57:08.595Z,30.6750
2022-11-20T00:57:19.648Z,30.6700
2022-11-20T00:57:30.725Z,30.6800
2022-11-20T00:57:42.290Z,30.6640
2022-11-20T00:57:53.375Z,30.6500
2022-11-20T00:58:04.811Z,30.6500
2022-11-20T00:58:15.969Z,30.6560
2022-11-20T00:58:27.038Z,30.7440
2022-11-20T00:58:38.149Z,30.7800
2022-11-20T00:58:49.203Z,30.8740
2022-11-20T00:59:00.265Z,30.8350
2022-11-20T00:59:11.319Z,30.6640
2022-11-20T00:59:22.651Z,30.6800
2022-11-20T00:59:34.034Z,30.7330
2022-11-20T00:59:45.105Z,30.7330
2022-11-20T00:59:56.159Z,30.7170
2022-11-20T01:00:07.235Z,30.6400
2022-11-20T01:00:18.291Z,30.6720
2022-11-20T01:00:29.369Z,30.7690
2022-11-20T01:00:40.521Z,30.8070
2022-11-20T01:00:51.606Z,30.8460
2022-11-20T01:01:02.694Z,30.7400
2022-11-20T01:01:13.810Z,30.7630
2022-11-20T01:01:25.040Z,30.8220
2022-11-20T01:01:36.298Z,30.7840
2022-11-20T01:01:47.348Z,30.6780
2022-11-20T01:01:58.421Z,30.6830
2022-11-20T01:02:09.498Z,30.8270
2022-11-20T01:02:20.548Z,30.8540
2022-11-20T01:02:31.678Z,30.8330
2022-11-20T01:02:42.765Z,30.7370
2022-11-20T01:02:53.799Z,30.6810
2022-11-20T01:03:04.865Z,30.7190
2022-11-20T01:03:15.907Z,30.8130
2022-11-20T01:03:27.371Z,30.8900
2022-11-20T01:03:38.654Z,30.9560
2022-11-20T01:03:49.701Z,30.9510
2022-11-20T01:04:00.762Z,30.9280
2022-11-20T01:04:11.860Z,30.8840
2022-11-20T01:04:22.967Z,30.9060
2022-11-20T01:04:34.029Z,31.0000
2022-11-20T01:04:45.091Z,31.0890
2022-11-20T01:04:56.147Z,31.1450
2022-11-20T01:05:07.391Z,31.0890
2022-11-20T01:05:18.459Z,30.8080
2022-11-20T01:05:29.519Z,30.8080
2022-11-20T01:05:40.586Z,30.8690
2022-11-20T01:05:51.639Z,30.9250
2022-11-20T01:06:02.712Z,30.9900
2022-11-20T01:06:13.760Z,31.0410
2022-11-20T01:06:24.818Z,31.0730
2022-11-20T01:06:35.863Z,31.0350
2022-11-20T01:06:46.940Z,31.0190
2022-11-20T01:06:58.124Z,31.0130
2022-11-20T01:07:09.246Z,31.0080
2022-11-20T01:07:20.340Z,30.9940
2022-11-20T01:07:31.592Z,30.9740
2022-11-20T01:07:42.700Z,31.0410
2022-11-20T01:07:53.746Z,31.0910
2022-11-20T01:08:04.808Z,31.0910
2022-11-20T01:08:15.870Z,31.1130
2022-11-20T01:08:26.939Z,31.0790
2022-11-20T01:08:37.999Z,30.9610
2022-11-20T01:08:49.098Z,30.9630
2022-11-20T01:09:00.185Z,30.9570
2022-11-20T01:09:11.245Z,30.9140
2022-11-20T01:09:22.627Z,30.8800
2022-11-20T01:09:34.049Z,30.9470
2022-11-20T01:09:45.128Z,30.9630
2022-11-20T01:09:56.199Z,30.9630
2022-11-20T01:10:07.273Z,30.8910
2022-11-20T01:10:18.337Z,30.8740
2022-11-20T01:10:29.409Z,30.8420
2022-11-20T01:10:40.476Z,30.8690
2022-11-20T01:10:51.542Z,30.9360
2022-11-20T01:11:02.599Z,30.9740
2022-11-20T01:11:13.671Z,31.0460
2022-11-20T01:11:24.727Z,31.0790
2022-11-20T01:11:35.820Z,31.0730
2022-11-20T01:11:46.889Z,31.0500
2022-11-20T01:11:57.969Z,31.0050
2022-11-20T01:12:09.009Z,31.0210
2022-11-20T01:12:20.110Z,31.0000
2022-11-20T01:12:31.189Z,31.0000
2022-11-20T01:12:42.259Z,30.9330
2022-11-20T01:12:53.318Z,30.9270
2022-11-20T01:13:04.385Z,30.9330
2022-11-20T01:13:15.445Z,30.9260
2022-11-20T01:13:26.518Z,30.9260
2022-11-20T01:13:37.574Z,30.9760
2022-11-20T01:13:48.656Z,31.0310
2022-11-20T01:13:59.742Z,31.0470
2022-11-20T01:14:10.807Z,31.0580
2022-11-20T01:14:21.877Z,31.0810
2022-11-20T01:14:32.918Z,31.1030
2022-11-20T01:14:43.997Z,31.0440
2022-11-20T01:14:55.069Z,30.9500
2022-11-20T01:15:06.120Z,30.8730
2022-11-20T01:15:17.196Z,30.8010
2022-11-20T01:15:28.246Z,30.8620
2022-11-20T01:15:39.290Z,30.8910
2022-11-20T01:15:50.329Z,30.6760
2022-11-20T01:16:01.388Z,30.6590
2022-11-20T01:16:13.321Z,30.8080
2022-11-20T01:16:24.376Z,30.8690
2022-11-20T01:16:35.440Z,30.7750
2022-11-20T01:16:46.509Z,30.7300
2022-11-20T01:16:57.559Z,30.8080
2022-11-20T01:17:08.628Z,30.8250
2022-11-20T01:17:19.689Z,30.8580
2022-11-20T01:17:30.756Z,30.8640
2022-11-20T01:17:41.820Z,30.8640
2022-11-20T01:17:52.885Z,30.9020
2022-11-20T01:18:03.939Z,30.9070
2022-11-20T01:18:15.027Z,30.9610
2022-11-20T01:18:26.088Z,30.9060
2022-11-20T01:18:37.159Z,30.8890
2022-11-20T01:18:48.250Z,30.8730
2022-11-20T01:18:59.310Z,30.9110
2022-11-20T01:19:10.399Z,30.9560
2022-11-20T01:19:21.985Z,30.9270
2022-11-20T01:19:33.409Z,30.9670
2022-11-20T01:19:44.479Z,30.9720
2022-11-20T01:19:55.534Z,30.9680
2022-11-20T01:20:06.609Z,30.9850
2022-11-20T01:20:17.696Z,30.9410
2022-11-20T01:20:28.748Z,30.7860
2022-11-20T01:20:39.808Z,30.6870
2022-11-20T01:20:50.876Z,30.6140
2022-11-20T01:21:01.935Z,30.6140
2022-11-20T01:21:13.020Z,30.6590
2022-11-20T01:21:24.089Z,30.7360
2022-11-20T01:21:35.157Z,30.7970
2022-11-20T01:21:46.218Z,30.8360
2022-11-20T01:21:57.268Z,30.7800
2022-11-20T01:22:08.330Z,30.7420
2022-11-20T01:22:19.377Z,30.7750
2022-11-20T01:22:30.442Z,30.8420
2022-11-20T01:22:41.518Z,30.8690
2022-11-20T01:22:52.589Z,30.9190
2022-11-20T01:23:03.648Z,30.9250
2022-11-20T01:23:14.728Z,30.9140
2022-11-20T01:23:25.787Z,30.8250
2022-11-20T01:23:36.844Z,30.7030
2022-11-20T01:23:47.906Z,30.5970
2022-11-20T01:23:58.958Z,30.5580
2022-11-20T01:24:10.025Z,30.6190
2022-11-20T01:24:21.100Z,30.7400
2022-11-20T01:24:32.158Z,30.7450
2022-11-20T01:24:43.220Z,30.7560
2022-11-20T01:24:54.291Z,30.7450
2022-11-20T01:25:05.348Z,30.7740
2022-11-20T01:25:16.419Z,30.8340
2022-11-20T01:25:27.489Z,30.8840
2022-11-20T01:25:38.549Z,30.9000
2022-11-20T01:25:49.610Z,30.8840
2022-11-20T01:26:00.669Z,30.8010
2022-11-20T01:26:11.730Z,30.6680
2022-11-20T01:26:22.811Z,30.6240
2022-11-20T01:26:33.848Z,30.5740
2022-11-20T01:26:44.909Z,30.4580
2022-11-20T01:26:55.956Z,30.4110
2022-11-20T01:27:06.999Z,30.3940
2022-11-20T01:27:18.078Z,30.4490
2022-11-20T01:27:29.139Z,30.5930
2022-11-20T01:27:40.206Z,30.6200
2022-11-20T01:27:51.279Z,30.4990
2022-11-20T01:28:02.328Z,30.4700
2022-11-20T01:28:13.370Z,30.4930
2022-11-20T01:28:24.448Z,30.5480
2022-11-20T01:28:35.488Z,30.6200
2022-11-20T01:28:46.548Z,30.6420
2022-11-20T01:28:57.618Z,30.6540
2022-11-20T01:29:08.691Z,30.7080
2022-11-20T01:29:20.118Z,30.7860
2022-11-20T01:29:31.510Z,30.8530
2022-11-20T01:29:42.580Z,30.7910
2022-11-20T01:29:58.231Z,30.7680
2022-11-20T01:30:10.598Z,30.7480
2022-11-20T01:30:21.679Z,30.6540
2022-11-20T01:30:32.753Z,30.5760
2022-11-20T01:30:43.808Z,30.4830
2022-11-20T01:30:54.876Z,30.4380
2022-11-20T01:31:05.915Z,30.4380
2022-11-20T01:31:16.969Z,30.4760
2022-11-20T01:31:28.019Z,30.5200
2022-11-20T01:31:39.091Z,30.5760
2022-11-20T01:31:50.156Z,30.5480
2022-11-20T01:32:01.198Z,30.6360
2022-11-20T01:32:12.266Z,30.6040
2022-11-20T01:32:23.545Z,30.6040
2022-11-20T01:32:34.588Z,30.6420
2022-11-20T01:32:45.651Z,30.5790
2022-11-20T01:32:56.716Z,30.4080
2022-11-20T01:33:07.767Z,30.3590
2022-11-20T01:33:18.818Z,30.3860
2022-11-20T01:33:29.898Z,30.4850
2022-11-20T01:33:40.946Z,30.6020
2022-11-20T01:33:52.008Z,30.6180
2022-11-20T01:34:03.067Z,30.5300
2022-11-20T01:34:14.129Z,30.4470
2022-11-20T01:34:25.200Z,30.4110
2022-11-20T01:34:36.290Z,30.4000
2022-11-20T01:34:47.357Z,30.3660
2022-11-20T01:34:58.404Z,30.2890
2022-11-20T01:35:09.456Z,30.3770
2022-11-20T01:35:20.509Z,30.4830
2022-11-20T01:35:31.587Z,30.3550
2022-11-20T01:35:42.646Z,30.2290
2022-11-20T01:35:53.718Z,30.2170
2022-11-20T01:36:04.760Z,30.3330
2022-11-20T01:36:15.836Z,30.1950
2022-11-20T01:36:26.917Z,30.1070
2022-11-20T01:36:37.979Z,30.1730
2022-11-20T01:36:49.044Z,30.2430
2022-11-20T01:37:00.091Z,30.3140
2022-11-20T01:37:11.157Z,30.4310
2022-11-20T01:37:22.228Z,30.5310
2022-11-20T01:37:33.298Z,30.5030
2022-11-20T01:37:44.380Z,30.3590
2022-11-20T01:37:55.440Z,30.3380
2022-11-20T01:38:06.501Z,30.3920
2022-11-20T01:38:17.529Z,30.4640
2022-11-20T01:38:28.575Z,30.5310
2022-11-20T01:38:39.629Z,30.5710
2022-11-20T01:38:50.697Z,30.5530
2022-11-20T01:39:01.761Z,30.5310
2022-11-20T01:39:12.819Z,30.5200
2022-11-20T01:39:24.423Z,30.5200
2022-11-20T01:39:35.969Z,30.4880
2022-11-20T01:39:47.056Z,30.4110
2022-11-20T01:39:58.118Z,30.3330
2022-11-20T01:40:09.178Z,30.3550
2022-11-20T01:40:20.239Z,30.3440
2022-11-20T01:40:31.280Z,30.3140
2022-11-20T01:40:42.325Z,30.3320
2022-11-20T01:40:53.369Z,30.4080
2022-11-20T01:41:04.447Z,30.4640
2022-11-20T01:41:15.489Z,30.4700
2022-11-20T01:41:26.547Z,30.4760
2022-11-20T01:41:37.610Z,30.3440
2022-11-20T01:41:48.681Z,30.1460
2022-11-20T01:41:59.749Z,29.9810
2022-11-20T01:42:10.835Z,29.9200
2022-11-20T01:42:21.877Z,29.9090
2022-11-20T01:42:32.955Z,29.9350
2022-11-20T01:42:44.009Z,29.8800
2022-11-20T01:42:55.076Z,29.8130
2022-11-20T01:43:06.137Z,29.8030
2022-11-20T01:43:17.215Z,29.8030
2022-11-20T01:43:28.287Z,29.8080
2022-11-20T01:43:39.355Z,29.8740
2022-11-20T01:43:50.412Z,29.9030
2022-11-20T01:44:01.504Z,29.9510
2022-11-20T01:44:12.579Z,30.0070
2022-11-20T01:44:23.659Z,30.0290
2022-11-20T01:44:34.717Z,30.0070
2022-11-20T01:44:45.779Z,29.9680
2022-11-20T01:44:56.881Z,30.0290
2022-11-20T01:45:07.947Z,30.1670
2022-11-20T01:45:18.987Z,30.2260
2022-11-20T01:45:30.056Z,30.2770
2022-11-20T01:45:41.120Z,30.1330
2022-11-20T01:45:52.169Z,29.9730
2022-11-20T01:46:03.240Z,29.9190
2022-11-20T01:46:14.279Z,29.8960
2022-11-20T01:46:25.360Z,29.8690
2022-11-20T01:46:36.411Z,29.8420
2022-11-20T01:46:47.479Z,29.8080
2022-11-20T01:46:58.542Z,29.8130
2022-11-20T01:47:09.604Z,29.8030
2022-11-20T01:47:20.667Z,29.7920
2022-11-20T01:47:31.729Z,29.8050
2022-11-20T01:47:42.794Z,29.8270
2022-11-20T01:47:53.851Z,29.7820
2022-11-20T01:48:04.917Z,29.7290
2022-11-20T01:48:15.969Z,29.7180
2022-11-20T01:48:27.037Z,29.6890
2022-11-20T01:48:38.113Z,29.6570
2022-11-20T01:48:49.168Z,29.6620
2022-11-20T01:49:00.202Z,29.7890
2022-11-20T01:49:11.258Z,29.8650
2022-11-20T01:49:22.606Z,29.8430
2022-11-20T01:49:34.058Z,29.8430
2022-11-20T01:49:45.119Z,29.8430
2022-11-20T01:49:56.160Z,29.9590
2022-11-20T01:50:07.252Z,29.9980
2022-11-20T01:50:18.326Z,30.0190
2022-11-20T01:50:29.375Z,30.0190
2022-11-20T01:50:40.421Z,29.9980
2022-11-20T01:50:51.479Z,30.0230
2022-11-20T01:51:02.555Z,30.0390
2022-11-20T01:51:13.622Z,30.0790
2022-11-20T01:51:24.689Z,30.1460
2022-11-20T01:51:35.756Z,30.2500
2022-11-20T01:51:46.815Z,30.2650
2022-11-20T01:51:57.879Z,30.2760
2022-11-20T01:52:08.956Z,30.2980
2022-11-20T01:52:20.022Z,30.3090
2022-11-20T01:52:31.075Z,30.2520
2022-11-20T01:52:42.130Z,30.2410
2022-11-20T01:52:53.196Z,30.2360
2022-11-20T01:53:04.238Z,30.2520
2022-11-20T01:53:15.315Z,30.2080
2022-11-20T01:53:26.349Z,30.1880
2022-11-20T01:53:37.417Z,30.1220
2022-11-20T01:53:48.488Z,30.1220
2022-11-20T01:53:59.965Z,30.1270
2022-11-20T01:54:11.009Z,30.0340
2022-11-20T01:54:22.065Z,29.9240
2022-11-20T01:54:33.109Z,30.0690
2022-11-20T01:54:44.166Z,30.1350
2022-11-20T01:54:55.220Z,30.1350
2022-11-20T01:55:06.278Z,30.0350
2022-11-20T01:55:17.377Z,29.9360
2022-11-20T01:55:28.447Z,29.8770
2022-11-20T01:55:39.520Z,29.9970
2022-11-20T01:55:50.585Z,30.0960
2022-11-20T01:56:01.640Z,30.1330
2022-11-20T01:56:12.721Z,30.1070
2022-11-20T01:56:23.779Z,30.1020
2022-11-20T01:56:34.838Z,30.1410
2022-11-20T01:56:45.925Z,30.1350
2022-11-20T01:56:56.989Z,30.1020
2022-11-20T01:57:08.049Z,30.0910
2022-11-20T01:57:19.112Z,29.9920
2022-11-20T01:57:30.168Z,29.9260
2022-11-20T01:57:41.232Z,29.8930
2022-11-20T01:57:52.292Z,29.9260
2022-11-20T01:58:03.349Z,29.9650
2022-11-20T01:58:14.408Z,29.9700
2022-11-20T01:58:25.489Z,30.0300
2022-11-20T01:58:36.548Z,30.0190
2022-11-20T01:58:47.613Z,30.0240
2022-11-20T01:58:58.660Z,30.0580
2022-11-20T01:59:09.715Z,30.1020
2022-11-20T01:59:21.042Z,30.0800
2022-11-20T01:59:32.185Z,30.0410
2022-11-20T01:59:43.239Z,30.0240
2022-11-20T01:59:54.297Z,29.9730
2022-11-20T02:00:05.360Z,30.0010
2022-11-20T02:00:16.448Z,30.0440
2022-11-20T02:00:27.529Z,29.9840
2022-11-20T02:00:38.570Z,29.9350
2022-11-20T02:00:49.638Z,29.8960
2022-11-20T02:01:00.754Z,29.8960
2022-11-20T02:01:11.886Z,29.9010
2022-11-20T02:01:22.970Z,29.9400
2022-11-20T02:01:34.122Z,29.9400
2022-11-20T02:01:45.167Z,29.9620
2022-11-20T02:01:56.249Z,30.0550
2022-11-20T02:02:07.301Z,30.0610
2022-11-20T02:02:18.431Z,30.1770
2022-11-20T02:02:29.499Z,30.2210
2022-11-20T02:02:40.559Z,30.0170
2022-11-20T02:02:51.607Z,29.9570
2022-11-20T02:03:02.657Z,30.0390
2022-11-20T02:03:13.720Z,30.1050
2022-11-20T02:03:24.779Z,30.1120
2022-11-20T02:03:35.847Z,30.0690
2022-11-20T02:03:46.910Z,29.9920
2022-11-20T02:03:57.977Z,29.9920
2022-11-20T02:04:09.017Z,30.0300
2022-11-20T02:04:20.080Z,30.0960
2022-11-20T02:04:31.150Z,30.1770
2022-11-20T02:04:42.226Z,30.2480
2022-11-20T02:04:53.279Z,30.3200
2022-11-20T02:05:04.347Z,30.3480
2022-11-20T02:05:15.422Z,30.3480
2022-11-20T02:05:26.485Z,30.3590
2022-11-20T02:05:37.550Z,30.3360
2022-11-20T02:05:48.615Z,30.3700
2022-11-20T02:05:59.676Z,30.3810
2022-11-20T02:06:10.746Z,30.3360
2022-11-20T02:06:21.799Z,30.3030
2022-11-20T02:06:32.861Z,30.2920
2022-11-20T02:06:43.919Z,30.3200
2022-11-20T02:06:54.981Z,30.2480
2022-11-20T02:07:06.138Z,30.1220
2022-11-20T02:07:17.257Z,30.1050
2022-11-20T02:07:28.351Z,30.1160
2022-11-20T02:07:39.411Z,30.1430
2022-11-20T02:07:50.488Z,30.1430
2022-11-20T02:08:01.547Z,30.0500
2022-11-20T02:08:12.600Z,29.8020
2022-11-20T02:08:23.666Z,29.7430
2022-11-20T02:08:34.730Z,29.7430
2022-11-20T02:08:45.797Z,29.7430
2022-11-20T02:08:56.840Z,29.8880
2022-11-20T02:09:07.917Z,29.8820
2022-11-20T02:09:19.432Z,29.7660
2022-11-20T02:09:30.854Z,29.6620
2022-11-20T02:09:41.909Z,29.5960
2022-11-20T02:09:58.392Z,29.5800
2022-11-20T02:10:09.928Z,29.7000
2022-11-20T02:10:20.988Z,29.7070
2022-11-20T02:10:32.049Z,29.8430
2022-11-20T02:10:43.151Z,29.9350
2022-11-20T02:10:54.220Z,30.0010
2022-11-20T02:11:05.288Z,30.0120
2022-11-20T02:11:16.366Z,30.0010
2022-11-20T02:11:27.430Z,30.0390
2022-11-20T02:11:38.487Z,30.0840
2022-11-20T02:11:49.556Z,30.0950
2022-11-20T02:12:00.597Z,29.9730
2022-11-20T02:12:11.660Z,29.9460
2022-11-20T02:12:22.738Z,29.9200
2022-11-20T02:12:33.825Z,29.8270
2022-11-20T02:12:44.947Z,29.8930
2022-11-20T02:12:56.027Z,29.9420
2022-11-20T02:13:07.095Z,29.9310
2022-11-20T02:13:18.149Z,29.8050
2022-11-20T02:13:29.215Z,29.8110
2022-11-20T02:13:40.298Z,29.8320
2022-11-20T02:13:51.375Z,29.8430
2022-11-20T02:14:02.438Z,29.7880
2022-11-20T02:14:13.511Z,29.7440
2022-11-20T02:14:24.565Z,29.7280
2022-11-20T02:14:35.629Z,29.7120